createdAt,value
2018-03-11T00:03:41.596Z,40.90
2018-03-11T00:13:43.359Z,32.13
2018-03-11T00:23:45.106Z,44.13
2018-03-11T00:33:46.646Z,39.67
2018-03-11T00:43:48.977Z,36.00
2018-03-11T00:53:50.528Z,40.43
2018-03-11T01:03:52.208Z,44.07
2018-03-11T01:24:02.067Z,32.43
2018-03-11T01:34:03.653Z,56.87
2018-03-11T01:44:05.172Z,48.20
2018-03-11T01:54:06.791Z,53.53
2018-03-11T02:04:08.339Z,41.77
2018-03-11T02:14:09.905Z,36.57
2018-03-11T02:24:11.377Z,35.57
2018-03-11T02:34:12.895Z,43.87
2018-03-11T02:44:14.458Z,44.27
2018-03-11T02:54:16.047Z,49.07
2018-03-11T03:04:17.568Z,80.53
2018-03-11T03:14:19.046Z,70.00
2018-03-11T03:24:20.557Z,81.40
2018-03-11T03:34:22.091Z,113.37
2018-03-11T03:44:23.670Z,98.70
2018-03-11T03:54:25.202Z,88.83
2018-03-11T04:04:26.661Z,52.50
2018-03-11T04:14:28.265Z,45.63
2018-03-11T04:24:29.778Z,45.70
2018-03-11T04:34:31.332Z,45.60
2018-03-11T04:44:32.906Z,41.73
2018-03-11T04:54:35.175Z,40.30
2018-03-11T05:04:36.689Z,40.60
2018-03-11T05:14:38.211Z,40.20
2018-03-11T05:24:40.594Z,36.97
2018-03-11T05:34:42.109Z,36.20
2018-03-11T05:44:43.660Z,37.13
2018-03-11T05:54:45.201Z,35.20
2018-03-11T06:04:46.804Z,35.27
2018-03-11T06:14:48.255Z,33.30
2018-03-11T06:24:49.869Z,33.20
2018-03-11T06:34:51.456Z,30.97
2018-03-11T06:44:52.988Z,28.50
2018-03-11T06:54:54.673Z,26.80
2018-03-11T07:04:56.207Z,26.03
2018-03-11T07:14:57.772Z,22.40
2018-03-11T07:24:59.331Z,22.50
2018-03-11T07:35:01.692Z,22.03
2018-03-11T07:45:03.164Z,20.60
2018-03-11T07:55:04.741Z,20.30
2018-03-11T08:05:06.290Z,19.73
2018-03-11T08:15:07.822Z,21.30
2018-03-11T08:25:09.356Z,21.00
2018-03-11T08:35:10.976Z,20.93
2018-03-11T08:45:12.547Z,17.80
2018-03-11T08:55:15.076Z,16.40
2018-03-11T09:05:17.437Z,15.73
2018-03-11T09:15:19.006Z,15.87
2018-03-11T09:25:20.612Z,12.63
2018-03-11T09:35:22.248Z,14.33
2018-03-11T09:45:23.799Z,12.97
2018-03-11T09:55:25.376Z,12.10
2018-03-11T10:05:27.733Z,13.47
2018-03-11T10:15:29.852Z,14.03
2018-03-11T10:25:31.425Z,13.30
2018-03-11T10:35:33.772Z,14.07
2018-03-11T10:45:35.318Z,15.90
2018-03-11T10:55:36.909Z,16.60
2018-03-11T11:05:38.442Z,16.47
2018-03-11T11:15:40.735Z,15.43
2018-03-11T11:25:42.415Z,14.77
2018-03-11T11:35:44.727Z,16.47
2018-03-11T11:45:46.281Z,16.57
2018-03-11T11:55:48.665Z,17.07
2018-03-11T12:05:50.357Z,16.30
2018-03-11T12:15:52.027Z,18.17
2018-03-11T12:25:53.495Z,20.70
2018-03-11T12:35:55.089Z,20.33
2018-03-11T12:45:56.686Z,18.50
2018-03-11T12:56:00.869Z,17.33
2018-03-11T13:06:02.501Z,17.33
2018-03-11T13:16:04.004Z,18.10
2018-03-11T13:26:05.662Z,15.83
2018-03-11T13:36:07.899Z,13.10
2018-03-11T13:46:27.881Z,11.97
2018-03-11T13:56:29.489Z,10.37
2018-03-11T14:06:30.976Z,11.03
2018-03-11T14:16:32.626Z,9.07
2018-03-11T14:26:34.173Z,7.60
2018-03-11T14:36:35.888Z,7.73
2018-03-11T14:46:37.435Z,5.97
2018-03-11T14:56:39.012Z,5.40
2018-03-11T15:06:41.359Z,4.63
2018-03-11T15:16:42.962Z,3.73
2018-03-11T15:26:44.575Z,3.97
2018-03-11T15:36:46.197Z,5.63
2018-03-11T15:46:47.870Z,7.57
2018-03-11T15:56:50.481Z,8.17
2018-03-11T16:06:52.178Z,7.37
2018-03-11T16:16:54.680Z,8.20
2018-03-11T16:26:56.279Z,7.20
2018-03-11T16:36:57.850Z,6.93
2018-03-11T16:46:59.493Z,9.83
2018-03-11T16:57:01.970Z,11.50
2018-03-11T17:07:03.523Z,12.37
2018-03-11T17:17:05.867Z,15.73
2018-03-11T17:27:07.462Z,17.23
2018-03-11T17:37:09.018Z,17.00
2018-03-11T17:47:10.512Z,25.47
2018-03-11T17:57:12.175Z,28.80
2018-03-11T18:07:13.713Z,24.07
2018-03-11T18:17:15.474Z,18.53
2018-03-11T18:27:17.064Z,18.50
2018-03-11T18:37:18.701Z,17.83
2018-03-11T18:47:20.366Z,21.10
2018-03-11T18:57:22.894Z,22.83
2018-03-11T19:07:24.596Z,21.20
2018-03-11T19:17:26.246Z,18.90
2018-03-11T19:27:27.912Z,18.50
2018-03-11T19:37:29.650Z,17.40
2018-03-11T19:47:31.354Z,18.67
2018-03-11T19:57:33.778Z,16.80
2018-03-11T20:07:35.461Z,15.53
2018-03-11T20:17:37.170Z,17.13
2018-03-11T20:27:38.891Z,19.60
2018-03-11T20:37:40.618Z,18.07
2018-03-11T20:47:42.987Z,16.57
2018-03-11T20:57:44.547Z,18.67
2018-03-11T21:07:47.089Z,18.00
2018-03-11T21:17:48.660Z,18.57
2018-03-11T21:27:50.265Z,19.30
2018-03-11T21:37:51.867Z,20.27
2018-03-11T21:47:54.155Z,20.03
2018-03-11T21:57:55.710Z,19.57
2018-03-11T22:07:57.262Z,20.13
2018-03-11T22:17:58.810Z,20.37
2018-03-11T22:28:00.344Z,20.60
2018-03-11T22:38:01.898Z,22.27
2018-03-11T22:48:04.262Z,23.60
2018-03-11T22:58:05.953Z,21.63
2018-03-11T23:08:07.490Z,23.30
2018-03-11T23:18:09.030Z,22.73
2018-03-11T23:28:10.638Z,23.73
2018-03-11T23:38:12.198Z,26.83
2018-03-11T23:48:13.737Z,23.70
2018-03-11T23:58:15.384Z,22.33
